sensor_id;sensor_type;location;lat;lon;timestamp;P1;durP1;ratioP1;P2;durP2;ratioP2
69970;SDS011;57301;50.328;8.542;2024-01-15T00:02:00;19.20;;;6.80;;
69970;SDS011;57301;50.328;8.542;2024-01-15T00:04:26;17.30;;;7.20;;
69970;SDS011;57301;50.328;8.542;2024-01-15T00:06:53;14.93;;;6.20;;
69970;SDS011;57301;50.328;8.542;2024-01-15T00:09:20;17.23;;;6.82;;
69970;SDS011;57301;50.328;8.542;2024-01-15T00:11:46;17.42;;;6.85;;
69970;SDS011;57301;50.328;8.542;2024-01-15T00:14:13;16.20;;;7.20;;
69970;SDS011;57301;50.328;8.542;2024-01-15T00:16:40;15.77;;;6.20;;
69970;SDS011;57301;50.328;8.542;2024-01-15T00:19:07;12.48;;;6.30;;
69970;SDS011;57301;50.328;8.542;2024-01-15T00:21:34;16.58;;;6.20;;
69970;SDS011;57301;50.328;8.542;2024-01-15T00:24:01;16.58;;;6.78;;
69970;SDS011;57301;50.328;8.542;2024-01-15T00:26:27;14.20;;;6.73;;
69970;SDS011;57301;50.328;8.542;2024-01-15T00:28:54;13.65;;;6.60;;
69970;SDS011;57301;50.328;8.542;2024-01-15T00:31:21;16.48;;;7.07;;
69970;SDS011;57301;50.328;8.542;2024-01-15T00:33:47;12.43;;;5.90;;
69970;SDS011;57301;50.328;8.542;2024-01-15T00:36:14;13.80;;;5.80;;
69970;SDS011;57301;50.328;8.542;2024-01-15T00:38:43;12.97;;;6.03;;
69970;SDS011;57301;50.328;8.542;2024-01-15T00:41:10;10.60;;;5.50;;
69970;SDS011;57301;50.328;8.542;2024-01-15T00:43:37;16.05;;;6.05;;
69970;SDS011;57301;50.328;8.542;2024-01-15T00:46:03;14.65;;;6.68;;
69970;SDS011;57301;50.328;8.542;2024-01-15T00:48:30;16.17;;;6.93;;
69970;SDS011;57301;50.328;8.542;2024-01-15T00:50:57;16.07;;;6.17;;
69970;SDS011;57301;50.328;8.542;2024-01-15T00:53:23;13.10;;;6.60;;
69970;SDS011;57301;50.328;8.542;2024-01-15T00:55:50;14.25;;;6.13;;
69970;SDS011;57301;50.328;8.542;2024-01-15T00:58:16;15.45;;;7.00;;
69970;SDS011;57301;50.328;8.542;2024-01-15T01:00:43;14.57;;;6.18;;
69970;SDS011;57301;50.328;8.542;2024-01-15T01:03:10;13.47;;;6.03;;
69970;SDS011;57301;50.328;8.542;2024-01-15T01:05:36;18.23;;;7.55;;
69970;SDS011;57301;50.328;8.542;2024-01-15T01:08:04;16.60;;;6.93;;
69970;SDS011;57301;50.328;8.542;2024-01-15T01:10:30;14.57;;;6.05;;
69970;SDS011;57301;50.328;8.542;2024-01-15T01:12:57;15.52;;;6.22;;
69970;SDS011;57301;50.328;8.542;2024-01-15T01:15:23;15.53;;;6.73;;
69970;SDS011;57301;50.328;8.542;2024-01-15T01:17:50;14.68;;;6.13;;
69970;SDS011;57301;50.328;8.542;2024-01-15T01:20:17;17.17;;;7.05;;
69970;SDS011;57301;50.328;8.542;2024-01-15T01:22:45;19.98;;;8.27;;
69970;SDS011;57301;50.328;8.542;2024-01-15T01:25:11;19.70;;;7.38;;
69970;SDS011;57301;50.328;8.542;2024-01-15T01:27:38;19.10;;;8.43;;
69970;SDS011;57301;50.328;8.542;2024-01-15T01:30:05;15.40;;;7.50;;
69970;SDS011;57301;50.328;8.542;2024-01-15T01:32:32;17.90;;;7.78;;
69970;SDS011;57301;50.328;8.542;2024-01-15T01:34:58;16.23;;;6.97;;
69970;SDS011;57301;50.328;8.542;2024-01-15T01:37:25;14.80;;;6.10;;
69970;SDS011;57301;50.328;8.542;2024-01-15T01:39:52;14.03;;;6.27;;
69970;SDS011;57301;50.328;8.542;2024-01-15T01:42:18;18.40;;;7.32;;
69970;SDS011;57301;50.328;8.542;2024-01-15T01:44:45;19.73;;;6.93;;
69970;SDS011;57301;50.328;8.542;2024-01-15T01:47:11;15.40;;;6.35;;
69970;SDS011;57301;50.328;8.542;2024-01-15T01:49:39;13.27;;;5.70;;
69970;SDS011;57301;50.328;8.542;2024-01-15T01:52:06;17.03;;;7.03;;
69970;SDS011;57301;50.328;8.542;2024-01-15T01:54:33;16.63;;;6.85;;
69970;SDS011;57301;50.328;8.542;2024-01-15T01:57:02;18.20;;;7.80;;
69970;SDS011;57301;50.328;8.542;2024-01-15T01:59:30;18.25;;;7.05;;
69970;SDS011;57301;50.328;8.542;2024-01-15T02:01:56;16.02;;;6.95;;
69970;SDS011;57301;50.328;8.542;2024-01-15T02:04:24;14.53;;;5.53;;
69970;SDS011;57301;50.328;8.542;2024-01-15T02:06:51;16.25;;;6.93;;
69970;SDS011;57301;50.328;8.542;2024-01-15T02:09:18;20.83;;;7.53;;
69970;SDS011;57301;50.328;8.542;2024-01-15T02:11:48;18.05;;;7.28;;
69970;SDS011;57301;50.328;8.542;2024-01-15T02:14:15;18.92;;;7.93;;
69970;SDS011;57301;50.328;8.542;2024-01-15T02:16:41;16.43;;;7.00;;
69970;SDS011;57301;50.328;8.542;2024-01-15T02:19:14;14.60;;;6.90;;
69970;SDS011;57301;50.328;8.542;2024-01-15T02:21:41;16.40;;;5.93;;
69970;SDS011;57301;50.328;8.542;2024-01-15T02:24:08;17.20;;;7.60;;
69970;SDS011;57301;50.328;8.542;2024-01-15T02:26:35;18.75;;;7.65;;
69970;SDS011;57301;50.328;8.542;2024-01-15T02:29:03;16.97;;;7.13;;
69970;SDS011;57301;50.328;8.542;2024-01-15T02:31:30;18.45;;;7.28;;
69970;SDS011;57301;50.328;8.542;2024-01-15T02:33:57;18.95;;;7.55;;
69970;SDS011;57301;50.328;8.542;2024-01-15T02:36:24;17.00;;;6.93;;
69970;SDS011;57301;50.328;8.542;2024-01-15T02:38:51;19.98;;;7.35;;
69970;SDS011;57301;50.328;8.542;2024-01-15T02:41:17;16.97;;;7.57;;
69970;SDS011;57301;50.328;8.542;2024-01-15T02:43:44;18.30;;;7.72;;
69970;SDS011;57301;50.328;8.542;2024-01-15T02:46:10;17.17;;;6.90;;
69970;SDS011;57301;50.328;8.542;2024-01-15T02:48:37;18.35;;;7.18;;
69970;SDS011;57301;50.328;8.542;2024-01-15T02:51:04;17.70;;;7.72;;
69970;SDS011;57301;50.328;8.542;2024-01-15T02:53:30;19.73;;;8.37;;
69970;SDS011;57301;50.328;8.542;2024-01-15T02:55:57;16.65;;;6.47;;
69970;SDS011;57301;50.328;8.542;2024-01-15T02:58:23;20.25;;;7.35;;
69970;SDS011;57301;50.328;8.542;2024-01-15T03:00:50;16.33;;;7.20;;
69970;SDS011;57301;50.328;8.542;2024-01-15T03:03:16;18.30;;;6.85;;
69970;SDS011;57301;50.328;8.542;2024-01-15T03:05:43;17.40;;;6.33;;
69970;SDS011;57301;50.328;8.542;2024-01-15T03:08:10;14.23;;;6.50;;
69970;SDS011;57301;50.328;8.542;2024-01-15T03:10:36;17.45;;;7.38;;
69970;SDS011;57301;50.328;8.542;2024-01-15T03:13:03;15.52;;;6.43;;
69970;SDS011;57301;50.328;8.542;2024-01-15T03:15:29;18.02;;;7.45;;
69970;SDS011;57301;50.328;8.542;2024-01-15T03:17:56;15.97;;;6.20;;
69970;SDS011;57301;50.328;8.542;2024-01-15T03:20:22;17.67;;;7.28;;
69970;SDS011;57301;50.328;8.542;2024-01-15T03:22:49;14.88;;;7.07;;
69970;SDS011;57301;50.328;8.542;2024-01-15T03:25:15;16.83;;;6.32;;
69970;SDS011;57301;50.328;8.542;2024-01-15T03:27:43;21.02;;;6.85;;
69970;SDS011;57301;50.328;8.542;2024-01-15T03:30:10;15.37;;;6.40;;
69970;SDS011;57301;50.328;8.542;2024-01-15T03:32:37;12.80;;;5.53;;
69970;SDS011;57301;50.328;8.542;2024-01-15T03:35:04;14.32;;;6.38;;
69970;SDS011;57301;50.328;8.542;2024-01-15T03:37:31;15.45;;;7.28;;
69970;SDS011;57301;50.328;8.542;2024-01-15T03:39:57;17.75;;;7.20;;
69970;SDS011;57301;50.328;8.542;2024-01-15T03:42:24;17.70;;;6.10;;
69970;SDS011;57301;50.328;8.542;2024-01-15T03:44:50;18.80;;;6.70;;
69970;SDS011;57301;50.328;8.542;2024-01-15T03:47:17;16.30;;;7.00;;
69970;SDS011;57301;50.328;8.542;2024-01-15T03:49:43;14.35;;;6.70;;
69970;SDS011;57301;50.328;8.542;2024-01-15T03:52:10;16.75;;;7.20;;
69970;SDS011;57301;50.328;8.542;2024-01-15T03:54:36;21.67;;;7.53;;
69970;SDS011;57301;50.328;8.542;2024-01-15T03:57:04;13.82;;;6.20;;
69970;SDS011;57301;50.328;8.542;2024-01-15T03:59:30;17.73;;;6.60;;
69970;SDS011;57301;50.328;8.542;2024-01-15T04:01:57;15.73;;;7.38;;
69970;SDS011;57301;50.328;8.542;2024-01-15T04:04:23;14.82;;;6.15;;
69970;SDS011;57301;50.328;8.542;2024-01-15T04:06:50;18.00;;;6.87;;
69970;SDS011;57301;50.328;8.542;2024-01-15T04:09:17;19.45;;;6.78;;
69970;SDS011;57301;50.328;8.542;2024-01-15T04:11:43;17.98;;;7.60;;
69970;SDS011;57301;50.328;8.542;2024-01-15T04:14:10;19.15;;;8.18;;
69970;SDS011;57301;50.328;8.542;2024-01-15T04:16:37;57.97;;;23.02;;
69970;SDS011;57301;50.328;8.542;2024-01-15T04:19:04;16.67;;;7.17;;
69970;SDS011;57301;50.328;8.542;2024-01-15T04:21:31;19.40;;;7.47;;
69970;SDS011;57301;50.328;8.542;2024-01-15T04:23:57;21.10;;;7.40;;
69970;SDS011;57301;50.328;8.542;2024-01-15T04:26:24;19.67;;;7.65;;
69970;SDS011;57301;50.328;8.542;2024-01-15T04:28:50;20.13;;;8.02;;
69970;SDS011;57301;50.328;8.542;2024-01-15T04:31:23;18.87;;;7.93;;
69970;SDS011;57301;50.328;8.542;2024-01-15T04:33:51;19.35;;;7.97;;
69970;SDS011;57301;50.328;8.542;2024-01-15T04:36:18;14.93;;;6.40;;
69970;SDS011;57301;50.328;8.542;2024-01-15T04:38:45;17.13;;;7.70;;
69970;SDS011;57301;50.328;8.542;2024-01-15T04:41:12;18.30;;;7.68;;
69970;SDS011;57301;50.328;8.542;2024-01-15T04:43:39;17.00;;;7.10;;
69970;SDS011;57301;50.328;8.542;2024-01-15T04:46:06;20.23;;;7.40;;
69970;SDS011;57301;50.328;8.542;2024-01-15T04:48:33;19.25;;;8.05;;
69970;SDS011;57301;50.328;8.542;2024-01-15T04:51:00;19.30;;;8.52;;
69970;SDS011;57301;50.328;8.542;2024-01-15T04:53:26;21.27;;;8.48;;
69970;SDS011;57301;50.328;8.542;2024-01-15T04:55:53;17.13;;;6.97;;
69970;SDS011;57301;50.328;8.542;2024-01-15T04:58:20;18.48;;;8.18;;
69970;SDS011;57301;50.328;8.542;2024-01-15T05:00:46;19.88;;;8.02;;
69970;SDS011;57301;50.328;8.542;2024-01-15T05:03:13;18.17;;;7.55;;
69970;SDS011;57301;50.328;8.542;2024-01-15T05:05:40;18.75;;;7.13;;
69970;SDS011;57301;50.328;8.542;2024-01-15T05:08:06;19.90;;;7.60;;
69970;SDS011;57301;50.328;8.542;2024-01-15T05:10:33;18.58;;;8.18;;
69970;SDS011;57301;50.328;8.542;2024-01-15T05:12:59;23.40;;;8.13;;
69970;SDS011;57301;50.328;8.542;2024-01-15T05:15:26;22.23;;;8.15;;
69970;SDS011;57301;50.328;8.542;2024-01-15T05:17:52;17.50;;;7.13;;
69970;SDS011;57301;50.328;8.542;2024-01-15T05:20:19;21.70;;;8.10;;
69970;SDS011;57301;50.328;8.542;2024-01-15T05:22:45;17.08;;;7.05;;
69970;SDS011;57301;50.328;8.542;2024-01-15T05:25:12;16.73;;;6.88;;
69970;SDS011;57301;50.328;8.542;2024-01-15T05:27:39;16.50;;;7.10;;
69970;SDS011;57301;50.328;8.542;2024-01-15T05:30:05;24.83;;;9.70;;
69970;SDS011;57301;50.328;8.542;2024-01-15T05:32:33;20.87;;;7.63;;
69970;SDS011;57301;50.328;8.542;2024-01-15T05:34:59;20.30;;;7.35;;
69970;SDS011;57301;50.328;8.542;2024-01-15T05:37:26;23.10;;;7.90;;
69970;SDS011;57301;50.328;8.542;2024-01-15T05:39:53;19.88;;;7.55;;
69970;SDS011;57301;50.328;8.542;2024-01-15T05:42:19;18.70;;;7.28;;
69970;SDS011;57301;50.328;8.542;2024-01-15T05:44:49;22.07;;;7.17;;
69970;SDS011;57301;50.328;8.542;2024-01-15T05:47:16;20.60;;;8.60;;
69970;SDS011;57301;50.328;8.542;2024-01-15T05:49:43;21.33;;;7.95;;
69970;SDS011;57301;50.328;8.542;2024-01-15T05:52:10;23.75;;;7.85;;
69970;SDS011;57301;50.328;8.542;2024-01-15T05:54:36;18.50;;;6.97;;
69970;SDS011;57301;50.328;8.542;2024-01-15T05:57:04;15.73;;;6.03;;
69970;SDS011;57301;50.328;8.542;2024-01-15T05:59:30;21.40;;;8.07;;
69970;SDS011;57301;50.328;8.542;2024-01-15T06:02:00;18.30;;;7.07;;
69970;SDS011;57301;50.328;8.542;2024-01-15T06:04:33;18.92;;;7.55;;
69970;SDS011;57301;50.328;8.542;2024-01-15T06:06:59;17.83;;;7.35;;
69970;SDS011;57301;50.328;8.542;2024-01-15T06:09:26;18.50;;;7.03;;
69970;SDS011;57301;50.328;8.542;2024-01-15T06:11:54;19.73;;;8.43;;
69970;SDS011;57301;50.328;8.542;2024-01-15T06:14:21;20.40;;;8.00;;
69970;SDS011;57301;50.328;8.542;2024-01-15T06:16:48;21.77;;;8.52;;
69970;SDS011;57301;50.328;8.542;2024-01-15T06:19:15;21.00;;;8.60;;
69970;SDS011;57301;50.328;8.542;2024-01-15T06:21:42;20.83;;;8.63;;
69970;SDS011;57301;50.328;8.542;2024-01-15T06:24:09;16.85;;;7.35;;
69970;SDS011;57301;50.328;8.542;2024-01-15T06:26:36;21.45;;;8.27;;
69970;SDS011;57301;50.328;8.542;2024-01-15T06:29:03;16.92;;;6.60;;
69970;SDS011;57301;50.328;8.542;2024-01-15T06:31:29;20.45;;;8.50;;
69970;SDS011;57301;50.328;8.542;2024-01-15T06:33:56;19.70;;;7.67;;
69970;SDS011;57301;50.328;8.542;2024-01-15T06:36:23;21.45;;;7.38;;
69970;SDS011;57301;50.328;8.542;2024-01-15T06:38:51;23.00;;;8.65;;
69970;SDS011;57301;50.328;8.542;2024-01-15T06:41:18;19.77;;;7.80;;
69970;SDS011;57301;50.328;8.542;2024-01-15T06:43:44;17.42;;;7.53;;
69970;SDS011;57301;50.328;8.542;2024-01-15T06:46:11;22.23;;;8.60;;
69970;SDS011;57301;50.328;8.542;2024-01-15T06:48:38;17.92;;;7.63;;
69970;SDS011;57301;50.328;8.542;2024-01-15T06:51:04;20.90;;;8.43;;
69970;SDS011;57301;50.328;8.542;2024-01-15T06:53:31;22.35;;;8.02;;
69970;SDS011;57301;50.328;8.542;2024-01-15T06:55:58;20.85;;;7.55;;
69970;SDS011;57301;50.328;8.542;2024-01-15T06:58:24;17.17;;;6.37;;
69970;SDS011;57301;50.328;8.542;2024-01-15T07:00:56;17.83;;;7.53;;
69970;SDS011;57301;50.328;8.542;2024-01-15T07:03:24;13.85;;;6.63;;
69970;SDS011;57301;50.328;8.542;2024-01-15T07:05:50;19.85;;;6.75;;
69970;SDS011;57301;50.328;8.542;2024-01-15T07:08:17;15.98;;;6.50;;
69970;SDS011;57301;50.328;8.542;2024-01-15T07:10:43;18.70;;;7.00;;
69970;SDS011;57301;50.328;8.542;2024-01-15T07:13:13;17.38;;;7.40;;
69970;SDS011;57301;50.328;8.542;2024-01-15T07:15:40;16.70;;;7.70;;
69970;SDS011;57301;50.328;8.542;2024-01-15T07:18:06;15.13;;;6.30;;
69970;SDS011;57301;50.328;8.542;2024-01-15T07:20:33;15.88;;;7.07;;
69970;SDS011;57301;50.328;8.542;2024-01-15T07:23:00;18.83;;;7.93;;
69970;SDS011;57301;50.328;8.542;2024-01-15T07:25:30;22.92;;;8.45;;
69970;SDS011;57301;50.328;8.542;2024-01-15T07:27:56;22.20;;;8.70;;
69970;SDS011;57301;50.328;8.542;2024-01-15T07:30:23;18.38;;;7.60;;
69970;SDS011;57301;50.328;8.542;2024-01-15T07:32:50;21.10;;;8.02;;
69970;SDS011;57301;50.328;8.542;2024-01-15T07:35:19;21.90;;;7.87;;
69970;SDS011;57301;50.328;8.542;2024-01-15T07:37:45;21.90;;;7.97;;
69970;SDS011;57301;50.328;8.542;2024-01-15T07:40:12;20.45;;;7.95;;
69970;SDS011;57301;50.328;8.542;2024-01-15T07:42:39;20.27;;;7.22;;
69970;SDS011;57301;50.328;8.542;2024-01-15T07:45:05;19.83;;;8.20;;
69970;SDS011;57301;50.328;8.542;2024-01-15T07:47:32;20.00;;;8.03;;
69970;SDS011;57301;50.328;8.542;2024-01-15T07:49:59;16.50;;;7.15;;
69970;SDS011;57301;50.328;8.542;2024-01-15T07:52:31;18.08;;;7.88;;
69970;SDS011;57301;50.328;8.542;2024-01-15T07:54:58;18.27;;;6.95;;
69970;SDS011;57301;50.328;8.542;2024-01-15T07:57:29;16.70;;;7.10;;
69970;SDS011;57301;50.328;8.542;2024-01-15T07:59:56;18.07;;;7.77;;
69970;SDS011;57301;50.328;8.542;2024-01-15T08:02:23;34.92;;;11.05;;
69970;SDS011;57301;50.328;8.542;2024-01-15T08:04:49;18.17;;;7.88;;
69970;SDS011;57301;50.328;8.542;2024-01-15T08:07:16;19.55;;;8.23;;
69970;SDS011;57301;50.328;8.542;2024-01-15T08:09:44;22.65;;;9.38;;
69970;SDS011;57301;50.328;8.542;2024-01-15T08:12:13;22.17;;;9.07;;
69970;SDS011;57301;50.328;8.542;2024-01-15T08:14:40;19.92;;;7.72;;
69970;SDS011;57301;50.328;8.542;2024-01-15T08:17:06;24.10;;;8.57;;
69970;SDS011;57301;50.328;8.542;2024-01-15T08:19:33;21.33;;;8.52;;
69970;SDS011;57301;50.328;8.542;2024-01-15T08:22:00;18.80;;;7.68;;
69970;SDS011;57301;50.328;8.542;2024-01-15T08:24:29;19.07;;;7.60;;
69970;SDS011;57301;50.328;8.542;2024-01-15T08:26:56;17.83;;;7.07;;
69970;SDS011;57301;50.328;8.542;2024-01-15T08:29:22;16.25;;;7.10;;
69970;SDS011;57301;50.328;8.542;2024-01-15T08:31:50;17.08;;;7.03;;
69970;SDS011;57301;50.328;8.542;2024-01-15T08:34:17;18.90;;;7.22;;
69970;SDS011;57301;50.328;8.542;2024-01-15T08:36:44;19.07;;;6.87;;
69970;SDS011;57301;50.328;8.542;2024-01-15T08:39:11;16.85;;;6.07;;
69970;SDS011;57301;50.328;8.542;2024-01-15T08:41:37;16.95;;;6.63;;
69970;SDS011;57301;50.328;8.542;2024-01-15T08:44:04;17.48;;;7.68;;
69970;SDS011;57301;50.328;8.542;2024-01-15T08:46:30;19.60;;;7.03;;
69970;SDS011;57301;50.328;8.542;2024-01-15T08:48:57;16.03;;;6.80;;
69970;SDS011;57301;50.328;8.542;2024-01-15T08:51:24;18.00;;;7.03;;
69970;SDS011;57301;50.328;8.542;2024-01-15T08:53:50;19.08;;;7.32;;
69970;SDS011;57301;50.328;8.542;2024-01-15T08:56:17;20.08;;;7.75;;
69970;SDS011;57301;50.328;8.542;2024-01-15T08:58:43;17.95;;;7.75;;
69970;SDS011;57301;50.328;8.542;2024-01-15T09:01:12;15.70;;;7.87;;
69970;SDS011;57301;50.328;8.542;2024-01-15T09:03:39;22.02;;;7.88;;
69970;SDS011;57301;50.328;8.542;2024-01-15T09:06:09;19.23;;;8.68;;
69970;SDS011;57301;50.328;8.542;2024-01-15T09:08:36;18.60;;;7.85;;
69970;SDS011;57301;50.328;8.542;2024-01-15T09:11:03;19.58;;;6.90;;
69970;SDS011;57301;50.328;8.542;2024-01-15T09:13:29;18.03;;;7.50;;
69970;SDS011;57301;50.328;8.542;2024-01-15T09:15:57;20.90;;;9.82;;
69970;SDS011;57301;50.328;8.542;2024-01-15T09:18:25;17.85;;;7.50;;
69970;SDS011;57301;50.328;8.542;2024-01-15T09:20:52;19.20;;;7.68;;
69970;SDS011;57301;50.328;8.542;2024-01-15T09:23:18;19.00;;;7.78;;
69970;SDS011;57301;50.328;8.542;2024-01-15T09:25:47;21.23;;;8.90;;
69970;SDS011;57301;50.328;8.542;2024-01-15T09:28:14;19.75;;;7.45;;
69970;SDS011;57301;50.328;8.542;2024-01-15T09:30:41;21.27;;;8.70;;
69970;SDS011;57301;50.328;8.542;2024-01-15T09:33:08;22.70;;;9.82;;
69970;SDS011;57301;50.328;8.542;2024-01-15T09:35:36;18.77;;;8.02;;
69970;SDS011;57301;50.328;8.542;2024-01-15T09:38:14;17.10;;;7.97;;
69970;SDS011;57301;50.328;8.542;2024-01-15T09:40:45;19.85;;;7.90;;
69970;SDS011;57301;50.328;8.542;2024-01-15T09:43:19;14.48;;;7.07;;
69970;SDS011;57301;50.328;8.542;2024-01-15T09:45:49;15.88;;;8.07;;
69970;SDS011;57301;50.328;8.542;2024-01-15T09:48:27;17.02;;;7.93;;
69970;SDS011;57301;50.328;8.542;2024-01-15T09:50:57;14.27;;;6.57;;
69970;SDS011;57301;50.328;8.542;2024-01-15T09:53:34;18.60;;;6.60;;
69970;SDS011;57301;50.328;8.542;2024-01-15T09:56:05;19.00;;;8.05;;
69970;SDS011;57301;50.328;8.542;2024-01-15T09:58:36;14.07;;;6.53;;
69970;SDS011;57301;50.328;8.542;2024-01-15T10:01:03;13.32;;;6.05;;
69970;SDS011;57301;50.328;8.542;2024-01-15T10:03:34;14.73;;;6.43;;
69970;SDS011;57301;50.328;8.542;2024-01-15T10:06:01;15.93;;;6.85;;
69970;SDS011;57301;50.328;8.542;2024-01-15T10:08:28;18.48;;;8.02;;
69970;SDS011;57301;50.328;8.542;2024-01-15T10:10:55;13.85;;;6.30;;
69970;SDS011;57301;50.328;8.542;2024-01-15T10:13:21;14.60;;;7.05;;
69970;SDS011;57301;50.328;8.542;2024-01-15T10:15:48;12.97;;;5.73;;
69970;SDS011;57301;50.328;8.542;2024-01-15T10:18:22;15.07;;;6.60;;
69970;SDS011;57301;50.328;8.542;2024-01-15T10:20:52;14.65;;;5.97;;
69970;SDS011;57301;50.328;8.542;2024-01-15T10:23:21;14.65;;;6.20;;
69970;SDS011;57301;50.328;8.542;2024-01-15T10:25:50;14.45;;;6.68;;
69970;SDS011;57301;50.328;8.542;2024-01-15T10:28:18;15.70;;;5.93;;
69970;SDS011;57301;50.328;8.542;2024-01-15T10:30:45;17.40;;;6.63;;
69970;SDS011;57301;50.328;8.542;2024-01-15T10:33:12;13.70;;;6.72;;
69970;SDS011;57301;50.328;8.542;2024-01-15T10:35:39;11.93;;;5.88;;
69970;SDS011;57301;50.328;8.542;2024-01-15T10:38:10;11.63;;;5.30;;
69970;SDS011;57301;50.328;8.542;2024-01-15T10:40:37;10.53;;;5.23;;
69970;SDS011;57301;50.328;8.542;2024-01-15T10:43:09;13.18;;;5.50;;
69970;SDS011;57301;50.328;8.542;2024-01-15T10:45:46;9.10;;;4.72;;
69970;SDS011;57301;50.328;8.542;2024-01-15T10:48:17;9.45;;;4.72;;
69970;SDS011;57301;50.328;8.542;2024-01-15T10:50:47;10.10;;;4.70;;
69970;SDS011;57301;50.328;8.542;2024-01-15T10:53:15;11.80;;;5.07;;
69970;SDS011;57301;50.328;8.542;2024-01-15T10:55:43;8.40;;;4.45;;
69970;SDS011;57301;50.328;8.542;2024-01-15T10:58:20;8.63;;;4.57;;
69970;SDS011;57301;50.328;8.542;2024-01-15T11:00:46;12.18;;;5.50;;
69970;SDS011;57301;50.328;8.542;2024-01-15T11:03:13;11.93;;;5.80;;
69970;SDS011;57301;50.328;8.542;2024-01-15T11:05:43;10.40;;;5.70;;
69970;SDS011;57301;50.328;8.542;2024-01-15T11:08:10;12.32;;;5.60;;
69970;SDS011;57301;50.328;8.542;2024-01-15T11:10:38;11.02;;;5.30;;
69970;SDS011;57301;50.328;8.542;2024-01-15T11:13:15;10.10;;;5.20;;
69970;SDS011;57301;50.328;8.542;2024-01-15T11:15:54;9.38;;;4.53;;
69970;SDS011;57301;50.328;8.542;2024-01-15T11:18:25;9.83;;;5.10;;
69970;SDS011;57301;50.328;8.542;2024-01-15T11:23:48;10.23;;;5.60;;
69970;SDS011;57301;50.328;8.542;2024-01-15T11:26:36;9.15;;;4.45;;
69970;SDS011;57301;50.328;8.542;2024-01-15T11:37:56;8.48;;;4.97;;
69970;SDS011;57301;50.328;8.542;2024-01-15T11:40:21;12.40;;;5.70;;
69970;SDS011;57301;50.328;8.542;2024-01-15T11:43:00;10.57;;;4.93;;
69970;SDS011;57301;50.328;8.542;2024-01-15T11:45:29;10.97;;;5.10;;
69970;SDS011;57301;50.328;8.542;2024-01-15T11:48:09;8.70;;;4.95;;
69970;SDS011;57301;50.328;8.542;2024-01-15T11:50:40;9.30;;;5.68;;
69970;SDS011;57301;50.328;8.542;2024-01-15T11:53:15;9.57;;;5.30;;
69970;SDS011;57301;50.328;8.542;2024-01-15T11:55:43;10.57;;;5.18;;
69970;SDS011;57301;50.328;8.542;2024-01-15T11:58:11;9.70;;;4.30;;
69970;SDS011;57301;50.328;8.542;2024-01-15T12:00:39;11.32;;;4.32;;
69970;SDS011;57301;50.328;8.542;2024-01-15T12:03:13;11.85;;;5.13;;
69970;SDS011;57301;50.328;8.542;2024-01-15T12:05:40;9.70;;;4.90;;
69970;SDS011;57301;50.328;8.542;2024-01-15T12:08:09;10.50;;;5.57;;
69970;SDS011;57301;50.328;8.542;2024-01-15T12:10:37;12.57;;;5.00;;
69970;SDS011;57301;50.328;8.542;2024-01-15T12:13:13;10.20;;;5.15;;
69970;SDS011;57301;50.328;8.542;2024-01-15T12:15:41;12.43;;;5.95;;
69970;SDS011;57301;50.328;8.542;2024-01-15T12:18:10;12.05;;;5.18;;
69970;SDS011;57301;50.328;8.542;2024-01-15T12:20:39;9.88;;;5.32;;
69970;SDS011;57301;50.328;8.542;2024-01-15T12:23:06;9.93;;;4.73;;
69970;SDS011;57301;50.328;8.542;2024-01-15T12:25:35;8.63;;;4.35;;
69970;SDS011;57301;50.328;8.542;2024-01-15T12:28:02;12.40;;;5.68;;
69970;SDS011;57301;50.328;8.542;2024-01-15T12:30:29;10.60;;;5.25;;
69970;SDS011;57301;50.328;8.542;2024-01-15T12:33:03;9.27;;;5.07;;
69970;SDS011;57301;50.328;8.542;2024-01-15T12:35:31;11.60;;;5.43;;
69970;SDS011;57301;50.328;8.542;2024-01-15T12:37:59;9.65;;;4.63;;
69970;SDS011;57301;50.328;8.542;2024-01-15T12:40:28;9.23;;;4.78;;
69970;SDS011;57301;50.328;8.542;2024-01-15T12:42:55;9.18;;;4.68;;
69970;SDS011;57301;50.328;8.542;2024-01-15T12:45:23;11.45;;;4.95;;
69970;SDS011;57301;50.328;8.542;2024-01-15T12:47:50;8.50;;;4.40;;
69970;SDS011;57301;50.328;8.542;2024-01-15T12:50:17;9.45;;;4.55;;
69970;SDS011;57301;50.328;8.542;2024-01-15T12:52:46;10.43;;;5.00;;
69970;SDS011;57301;50.328;8.542;2024-01-15T12:55:13;7.70;;;4.22;;
69970;SDS011;57301;50.328;8.542;2024-01-15T12:57:41;8.52;;;4.68;;
69970;SDS011;57301;50.328;8.542;2024-01-15T13:00:08;9.33;;;4.43;;
69970;SDS011;57301;50.328;8.542;2024-01-15T13:02:40;12.07;;;4.85;;
69970;SDS011;57301;50.328;8.542;2024-01-15T13:05:08;10.32;;;4.68;;
69970;SDS011;57301;50.328;8.542;2024-01-15T13:07:35;10.98;;;5.35;;
69970;SDS011;57301;50.328;8.542;2024-01-15T13:10:02;10.10;;;4.78;;
69970;SDS011;57301;50.328;8.542;2024-01-15T13:12:29;10.67;;;4.63;;
69970;SDS011;57301;50.328;8.542;2024-01-15T13:14:55;9.88;;;5.15;;
69970;SDS011;57301;50.328;8.542;2024-01-15T13:17:24;9.43;;;4.63;;
69970;SDS011;57301;50.328;8.542;2024-01-15T13:19:51;10.27;;;4.90;;
69970;SDS011;57301;50.328;8.542;2024-01-15T13:22:18;8.93;;;4.88;;
69970;SDS011;57301;50.328;8.542;2024-01-15T13:24:45;9.93;;;5.10;;
69970;SDS011;57301;50.328;8.542;2024-01-15T13:27:12;9.05;;;4.93;;
69970;SDS011;57301;50.328;8.542;2024-01-15T13:29:39;10.35;;;5.82;;
69970;SDS011;57301;50.328;8.542;2024-01-15T13:32:06;9.63;;;5.00;;
69970;SDS011;57301;50.328;8.542;2024-01-15T13:34:32;8.40;;;4.65;;
69970;SDS011;57301;50.328;8.542;2024-01-15T13:36:59;9.10;;;4.57;;
69970;SDS011;57301;50.328;8.542;2024-01-15T13:39:25;9.65;;;5.30;;
69970;SDS011;57301;50.328;8.542;2024-01-15T13:41:52;13.77;;;7.93;;
69970;SDS011;57301;50.328;8.542;2024-01-15T13:44:19;5.75;;;3.20;;
69970;SDS011;57301;50.328;8.542;2024-01-15T13:46:47;9.57;;;4.60;;
69970;SDS011;57301;50.328;8.542;2024-01-15T13:49:14;6.87;;;3.83;;
69970;SDS011;57301;50.328;8.542;2024-01-15T13:51:41;9.13;;;4.30;;
69970;SDS011;57301;50.328;8.542;2024-01-15T13:54:07;7.63;;;4.40;;
69970;SDS011;57301;50.328;8.542;2024-01-15T13:56:34;6.72;;;3.60;;
69970;SDS011;57301;50.328;8.542;2024-01-15T13:59:01;8.88;;;4.47;;
69970;SDS011;57301;50.328;8.542;2024-01-15T14:01:30;7.47;;;3.77;;
69970;SDS011;57301;50.328;8.542;2024-01-15T14:03:57;7.07;;;3.83;;
69970;SDS011;57301;50.328;8.542;2024-01-15T14:06:24;5.57;;;3.00;;
69970;SDS011;57301;50.328;8.542;2024-01-15T14:08:51;7.93;;;3.47;;
69970;SDS011;57301;50.328;8.542;2024-01-15T14:11:18;10.10;;;4.13;;
69970;SDS011;57301;50.328;8.542;2024-01-15T14:13:45;8.73;;;4.20;;
69970;SDS011;57301;50.328;8.542;2024-01-15T14:16:13;9.18;;;4.47;;
69970;SDS011;57301;50.328;8.542;2024-01-15T14:18:40;6.68;;;4.03;;
69970;SDS011;57301;50.328;8.542;2024-01-15T14:21:07;6.50;;;3.03;;
69970;SDS011;57301;50.328;8.542;2024-01-15T14:23:33;8.23;;;3.83;;
69970;SDS011;57301;50.328;8.542;2024-01-15T14:26:00;5.97;;;3.60;;
69970;SDS011;57301;50.328;8.542;2024-01-15T14:28:27;7.45;;;3.50;;
69970;SDS011;57301;50.328;8.542;2024-01-15T14:30:53;6.65;;;4.10;;
69970;SDS011;57301;50.328;8.542;2024-01-15T14:33:22;9.55;;;3.88;;
69970;SDS011;57301;50.328;8.542;2024-01-15T14:35:49;7.50;;;4.38;;
69970;SDS011;57301;50.328;8.542;2024-01-15T14:38:15;9.27;;;4.40;;
69970;SDS011;57301;50.328;8.542;2024-01-15T14:40:42;8.40;;;4.47;;
69970;SDS011;57301;50.328;8.542;2024-01-15T14:43:10;8.80;;;4.18;;
69970;SDS011;57301;50.328;8.542;2024-01-15T14:45:37;7.93;;;4.53;;
69970;SDS011;57301;50.328;8.542;2024-01-15T14:48:03;9.95;;;4.15;;
69970;SDS011;57301;50.328;8.542;2024-01-15T14:50:30;5.53;;;2.80;;